Time;durP1;ratioP1;P1;durP2;ratioP2;P2;SDS_P1;SDS_P2;PMS_P1;PMS_P2;Temp;Humidity;BMP_temperature;BMP_pressure;BME280_temperature;BME280_humidity;BME280_pressure;Samples;Min_cycle;Max_cycle;Signal;HPM_P1;HPM_P2
2021/09/28 00:00:15;;;;;;;21.23;16.27;;;;;;;14.08;100.00;96522.47;1028076;28;20309;-52
2021/09/28 00:00:45;;;;;;;22.88;17.17;;;;;;;14.12;100.00;96526.56;1023971;29;20374;-52
2021/09/28 00:01:17;;;;;;;20.27;16.17;;;;;;;14.14;100.00;96528.13;1028213;28;20117;-52
2021/09/28 00:01:47;;;;;;;19.27;16.35;;;;;;;14.12;100.00;96530.03;1020536;29;20027;-51
2021/09/28 00:02:18;;;;;;;21.13;16.88;;;;;;;14.14;100.00;96525.47;1024445;28;20344;-50
2021/09/28 00:02:49;;;;;;;22.83;17.70;;;;;;;14.14;100.00;96524.66;1023889;29;20019;-53
2021/09/28 00:03:20;;;;;;;19.58;16.23;;;;;;;14.17;100.00;96527.03;1024126;29;20046;-52
2021/09/28 00:03:50;;;;;;;19.98;16.25;;;;;;;14.17;100.00;96527.03;1028353;28;20576;-52
2021/09/28 00:04:21;;;;;;;21.63;17.33;;;;;;;14.23;100.00;96525.72;1028275;28;20046;-51
2021/09/28 00:04:52;;;;;;;20.17;16.52;;;;;;;14.22;100.00;96530.16;1024884;28;20050;-51
2021/09/28 00:05:22;;;;;;;19.33;15.65;;;;;;;14.23;100.00;96525.72;1036451;28;20025;-51
2021/09/28 00:05:53;;;;;;;19.35;15.98;;;;;;;14.26;100.00;96520.22;1032296;28;20507;-49
2021/09/28 00:06:24;;;;;;;22.20;17.10;;;;;;;14.29;100.00;96528.75;1028426;28;20033;-51
2021/09/28 00:06:55;;;;;;;24.27;17.08;;;;;;;14.34;100.00;96523.97;1032257;28;20022;-51
2021/09/28 00:07:25;;;;;;;22.10;16.52;;;;;;;14.38;100.00;96519.31;1024385;28;20015;-52
2021/09/28 00:07:56;;;;;;;21.10;16.90;;;;;;;14.40;100.00;96522.66;1020402;29;20104;-52
2021/09/28 00:08:27;;;;;;;19.58;15.75;;;;;;;14.42;100.00;96519.91;1024251;29;20019;-52
2021/09/28 00:08:58;;;;;;;17.98;15.55;;;;;;;14.45;100.00;96517.03;1016220;29;20391;-52
2021/09/28 00:09:28;;;;;;;18.27;15.52;;;;;;;14.49;100.00;96521.09;1024050;29;20086;-52
2021/09/28 00:09:59;;;;;;;19.27;15.55;;;;;;;14.52;100.00;96519.06;1028255;28;20058;-51
2021/09/28 00:10:31;;;;;;;20.33;15.50;;;;;;;14.51;100.00;96516.56;1032154;28;20045;-52
2021/09/28 00:11:02;;;;;;;20.50;16.83;;;;;;;14.49;100.00;96519.31;1032162;28;20042;-51
2021/09/28 00:11:33;;;;;;;22.35;16.35;;;;;;;14.49;100.00;96519.31;1032674;28;20054;-51
2021/09/28 00:12:04;;;;;;;21.23;16.58;;;;;;;14.52;100.00;96518.25;1032673;28;20080;-52
2021/09/28 00:12:35;;;;;;;22.63;16.48;;;;;;;14.52;100.00;96512.97;1036203;28;20109;-50
2021/09/28 00:13:06;;;;;;;18.88;15.68;;;;;;;14.51;100.00;96520.03;1031921;28;20022;-52
2021/09/28 00:13:37;;;;;;;19.13;16.40;;;;;;;14.52;100.00;96513.78;1028196;28;20086;-50
2021/09/28 00:14:08;;;;;;;19.27;15.82;;;;;;;14.51;100.00;96517.41;1028301;28;20070;-52
2021/09/28 00:14:39;;;;;;;19.17;14.85;;;;;;;14.51;100.00;96516.56;1032100;28;20029;-52
2021/09/28 00:15:10;;;;;;;22.67;16.23;;;;;;;14.54;100.00;96514.50;1032345;28;20022;-51
2021/09/28 00:15:41;;;;;;;18.88;15.27;;;;;;;14.58;100.00;96515.16;1036323;28;20734;-50
2021/09/28 00:16:12;;;;;;;19.35;16.10;;;;;;;14.60;100.00;96513.22;1031883;28;20018;-50
2021/09/28 00:16:43;;;;;;;20.17;16.45;;;;;;;14.61;100.00;96512.28;1028378;28;20448;-51
2021/09/28 00:17:13;;;;;;;19.55;15.75;;;;;;;14.62;100.00;96513.13;1027854;28;20019;-51
2021/09/28 00:17:44;;;;;;;19.63;16.25;;;;;;;14.60;100.00;96517.69;1020432;29;20024;-52
2021/09/28 00:18:15;;;;;;;19.58;16.58;;;;;;;14.59;100.00;96511.56;1020208;29;20020;-52
2021/09/28 00:18:46;;;;;;;21.00;16.05;;;;;;;14.61;100.00;96514.09;1020126;29;20504;-52
2021/09/28 00:19:16;;;;;;;19.88;16.33;;;;;;;14.63;100.00;96513.00;1020014;29;20520;-52
2021/09/28 00:19:47;;;;;;;18.13;15.77;;;;;;;14.63;100.00;96512.19;1027934;28;20563;-51
2021/09/28 00:20:18;;;;;;;21.23;16.02;;;;;;;14.64;100.00;96516.47;1028071;28;20105;-51
2021/09/28 00:20:48;;;;;;;18.50;15.30;;;;;;;14.66;100.00;96504.00;1028200;28;20042;-52
2021/09/28 00:21:19;;;;;;;19.75;15.73;;;;;;;14.68;100.00;96512.66;1032170;28;20086;-51
2021/09/28 00:21:50;;;;;;;20.25;15.90;;;;;;;14.65;100.00;96503.16;1032360;28;20097;-53
2021/09/28 00:22:21;;;;;;;21.20;15.82;;;;;;;14.66;100.00;96509.28;1036306;28;20060;-52
2021/09/28 00:22:54;;;;;;;20.77;16.05;;;;;;;14.71;100.00;96515.03;1019897;28;20428;-52
2021/09/28 00:23:25;;;;;;;21.85;15.77;;;;;;;14.67;100.00;96505.69;1028210;28;20094;-51
2021/09/28 00:23:56;;;;;;;21.08;15.73;;;;;;;14.65;100.00;96510.25;1028013;28;20063;-52
2021/09/28 00:24:26;;;;;;;19.73;16.30;;;;;;;14.67;100.00;96508.34;1024006;29;20023;-53
2021/09/28 00:24:57;;;;;;;17.55;14.93;;;;;;;14.70;100.00;96506.31;1020044;29;20086;-52
2021/09/28 00:25:28;;;;;;;19.17;15.80;;;;;;;14.69;100.00;96514.31;1027927;28;20505;-52
2021/09/28 00:25:58;;;;;;;21.80;15.68;;;;;;;14.67;100.00;96513.59;1024132;28;20549;-51
2021/09/28 00:26:30;;;;;;;20.85;16.17;;;;;;;14.67;100.00;96510.97;1024163;29;20174;-50
2021/09/28 00:27:00;;;;;;;20.77;15.55;;;;;;;14.73;100.00;96507.84;1032161;28;20026;-51
2021/09/28 00:27:32;;;;;;;20.10;15.73;;;;;;;14.75;100.00;96509.44;1020126;29;20520;-50
2021/09/28 00:28:03;;;;;;;20.27;16.15;;;;;;;14.75;100.00;96513.84;1016136;29;20060;-52
2021/09/28 00:28:34;;;;;;;21.30;16.98;;;;;;;14.72;100.00;96514.94;1020686;29;20079;-52
2021/09/28 00:29:05;;;;;;;22.33;16.38;;;;;;;14.71;100.00;96513.25;1023867;28;20019;-52
2021/09/28 00:29:36;;;;;;;19.60;16.45;;;;;;;14.73;100.00;96511.34;1024083;28;20069;-52
2021/09/28 00:30:07;;;;;;;20.58;16.55;;;;;;;14.72;100.00;96511.47;1028330;28;20014;-52
2021/09/28 00:30:37;;;;;;;20.83;16.10;;;;;;;14.76;100.00;96515.53;1032366;28;20022;-51
2021/09/28 00:31:08;;;;;;;20.05;16.48;;;;;;;14.79;100.00;96504.75;1028806;28;20477;-50
2021/09/28 00:31:39;;;;;;;20.30;16.50;;;;;;;14.78;100.00;96510.97;1032201;28;20113;-50
2021/09/28 00:32:09;;;;;;;19.10;15.88;;;;;;;14.77;100.00;96506.66;1032270;28;20574;-52
2021/09/28 00:32:41;;;;;;;19.52;15.20;;;;;;;14.77;100.00;96507.50;1024325;28;20564;-51
2021/09/28 00:33:11;;;;;;;21.77;15.55;;;;;;;14.75;100.00;96503.28;1028191;28;20019;-51
2021/09/28 00:33:42;;;;;;;20.88;16.23;;;;;;;14.71;100.00;96507.13;1028289;28;20027;-52
2021/09/28 00:34:13;;;;;;;19.70;16.05;;;;;;;14.72;100.00;96507.03;1032487;28;20045;-52
2021/09/28 00:34:45;;;;;;;23.00;16.00;;;;;;;14.77;100.00;96506.66;1028250;28;20118;-51
2021/09/28 00:35:16;;;;;;;19.77;15.75;;;;;;;14.76;100.00;96515.53;1027831;28;20034;-52
2021/09/28 00:35:46;;;;;;;20.50;15.15;;;;;;;14.72;100.00;96509.66;1024728;28;20023;-52
2021/09/28 00:36:22;;;;;;;20.00;16.83;;;;;;;14.71;100.00;96513.25;1028382;28;20065;-51
2021/09/28 00:36:53;;;;;;;22.23;16.20;;;;;;;14.75;100.00;96511.19;1033301;28;20121;-52
2021/09/28 00:37:24;;;;;;;21.25;15.80;;;;;;;14.76;100.00;96516.38;1032326;28;20467;-51
2021/09/28 00:37:55;;;;;;;19.63;16.02;;;;;;;14.76;100.00;96513.72;1029039;28;20473;-52
2021/09/28 00:38:25;;;;;;;22.85;17.80;;;;;;;14.74;100.00;96512.19;1024354;29;20039;-51
2021/09/28 00:38:56;;;;;;;22.00;15.60;;;;;;;14.73;100.00;96515.75;1020193;29;20119;-51
2021/09/28 00:39:26;;;;;;;19.20;15.52;;;;;;;14.75;100.00;96513.84;1024195;29;20030;-52
2021/09/28 00:39:57;;;;;;;21.70;16.65;;;;;;;14.77;100.00;96511.91;1028401;28;20027;-52
2021/09/28 00:40:30;;;;;;;19.00;16.48;;;;;;;14.78;100.00;96519.72;1032105;28;20105;-52
2021/09/28 00:41:00;;;;;;;22.83;16.08;;;;;;;14.77;100.00;96517.19;1028276;28;20038;-52
2021/09/28 00:41:31;;;;;;;19.52;16.30;;;;;;;14.72;100.00;96516.75;1020196;29;20044;-51
2021/09/28 00:42:02;;;;;;;21.23;15.82;;;;;;;14.72;100.00;96519.38;1020302;29;20059;-50
2021/09/28 00:42:33;;;;;;;19.85;16.33;;;;;;;14.72;100.00;96514.09;1028024;28;20027;-52
2021/09/28 00:43:03;;;;;;;21.17;16.55;;;;;;;14.70;100.00;96516.03;1032312;28;20022;-51
2021/09/28 00:43:53;;;;;;;22.63;17.08;;;;;;;14.68;100.00;96517.94;1024159;29;20027;-51
2021/09/28 00:44:43;;;;;;;18.13;15.60;;;;;;;14.72;100.00;96524.66;1024181;29;20062;-51
2021/09/28 00:45:14;;;;;;;19.95;15.63;;;;;;;14.72;100.00;96514.94;1024290;29;20035;-51
2021/09/28 00:45:45;;;;;;;19.23;16.40;;;;;;;14.74;100.00;96517.47;1028304;28;20117;-52
2021/09/28 00:46:16;;;;;;;19.70;16.60;;;;;;;14.73;100.00;96515.75;1028266;28;20488;-50
2021/09/28 00:46:46;;;;;;;21.23;16.77;;;;;;;14.72;100.00;96514.09;1020609;28;20035;-52
2021/09/28 00:47:20;;;;;;;23.75;16.67;;;;;;;14.72;100.00;96514.09;1028127;28;20101;-51
2021/09/28 00:47:52;;;;;;;22.30;17.30;;;;;;;14.71;100.00;96513.25;1024762;28;20054;-52
2021/09/28 00:48:22;;;;;;;20.10;16.48;;;;;;;14.69;100.00;96522.25;1028160;28;20424;-51
2021/09/28 00:48:53;;;;;;;18.88;16.10;;;;;;;14.68;100.00;96523.22;1028100;28;20110;-52
2021/09/28 00:49:24;;;;;;;22.58;16.00;;;;;;;14.65;100.00;96516.34;1028154;28;20500;-50
2021/09/28 00:49:55;;;;;;;18.70;16.25;;;;;;;14.66;100.00;96517.19;1024276;28;20058;-51
2021/09/28 00:50:26;;;;;;;20.52;15.82;;;;;;;14.65;100.00;96521.63;1024317;29;20019;-51
2021/09/28 00:50:56;;;;;;;19.73;16.05;;;;;;;14.66;100.00;96525.09;1032467;28;20570;-50
2021/09/28 00:51:27;;;;;;;20.27;16.27;;;;;;;14.65;100.00;96515.53;1036081;28;20029;-52
2021/09/28 00:51:58;;;;;;;21.55;16.30;;;;;;;14.66;100.00;96519.84;1028161;28;20492;-50
2021/09/28 00:52:28;;;;;;;21.55;16.08;;;;;;;14.70;100.00;96516.84;1028482;28;20014;-51
2021/09/28 00:52:59;;;;;;;19.10;16.02;;;;;;;14.70;100.00;96521.28;1027652;28;20058;-51
2021/09/28 00:53:31;;;;;;;20.63;15.55;;;;;;;14.66;100.00;96518.06;1036151;28;20068;-51
2021/09/28 00:54:03;;;;;;;20.65;15.32;;;;;;;14.66;100.00;96518.06;1028094;28;20023;-51
2021/09/28 00:54:37;;;;;;;19.15;15.40;;;;;;;14.65;100.00;96513.72;1024026;28;20045;-51
2021/09/28 00:55:08;;;;;;;19.33;15.93;;;;;;;14.67;100.00;96514.44;1024001;28;20090;-50
2021/09/28 00:55:39;;;;;;;19.00;15.77;;;;;;;14.70;100.00;96521.28;1023805;29;20520;-51
2021/09/28 00:56:13;;;;;;;19.10;15.30;;;;;;;14.70;100.00;96516.84;1027814;28;20511;-51
2021/09/28 00:56:44;;;;;;;20.75;16.00;;;;;;;14.68;100.00;96521.41;1028641;28;20058;-51
2021/09/28 00:57:15;;;;;;;21.02;15.25;;;;;;;14.66;100.00;96525.09;1031949;28;20085;-52
2021/09/28 00:57:46;;;;;;;19.10;15.38;;;;;;;14.56;100.00;96525.81;1028544;28;20023;-51
2021/09/28 00:58:17;;;;;;;17.83;15.02;;;;;;;14.53;100.00;96520.75;1028051;28;20047;-50
2021/09/28 00:58:48;;;;;;;20.13;15.73;;;;;;;14.54;100.00;96527.69;1027861;28;20027;-51
2021/09/28 00:59:19;;;;;;;22.67;16.02;;;;;;;14.54;100.00;96522.44;1027928;28;20102;-50
2021/09/28 00:59:50;;;;;;;20.63;16.23;;;;;;;14.54;100.00;96526.88;1027962;28;20023;-51
2021/09/28 01:00:20;;;;;;;22.73;16.48;;;;;;;14.55;100.00;96524.13;1023983;28;20051;-50
2021/09/28 01:00:51;;;;;;;23.02;16.77;;;;;;;14.53;100.00;96528.69;1020213;29;20478;-50
2021/09/28 01:01:22;;;;;;;24.25;16.10;;;;;;;14.53;100.00;96527.84;1019783;29;20023;-50
2021/09/28 01:01:53;;;;;;;20.40;16.17;;;;;;;14.52;100.00;96529.63;1027871;28;20118;-50
2021/09/28 01:02:23;;;;;;;20.92;16.35;;;;;;;14.54;100.00;96530.34;1027787;28;20054;-51
2021/09/28 01:02:55;;;;;;;22.45;17.10;;;;;;;14.46;100.00;96522.19;1023633;29;20051;-50
2021/09/28 01:03:26;;;;;;;21.15;15.48;;;;;;;14.51;100.00;96530.59;1031697;28;20022;-52
2021/09/28 01:03:56;;;;;;;18.35;15.40;;;;;;;14.48;100.00;96532.63;1027899;28;20136;-51
2021/09/28 01:04:27;;;;;;;19.70;15.57;;;;;;;14.49;100.00;96535.16;1027863;28;20357;-51
2021/09/28 01:05:02;;;;;;;20.58;15.98;;;;;;;14.49;100.00;96536.91;1031848;28;20053;-51
2021/09/28 01:05:33;;;;;;;22.25;15.77;;;;;;;14.44;100.00;96533.81;1027833;28;20047;-51
2021/09/28 01:06:04;;;;;;;19.20;15.60;;;;;;;14.44;100.00;96531.19;1019950;29;20482;-51
2021/09/28 01:06:35;;;;;;;19.88;15.35;;;;;;;14.42;100.00;96528.66;1024755;28;20386;-51
2021/09/28 01:07:06;;;;;;;19.90;15.95;;;;;;;14.46;100.00;96530.09;1024122;29;20019;-52
2021/09/28 01:07:37;;;;;;;22.20;15.93;;;;;;;14.42;100.00;96533.94;1027854;28;20512;-52
2021/09/28 01:08:08;;;;;;;19.33;15.50;;;;;;;14.44;100.00;96533.81;1027698;28;20106;-52
2021/09/28 01:08:38;;;;;;;18.67;15.60;;;;;;;14.42;100.00;96528.66;1023891;28;20046;-52
2021/09/28 01:09:11;;;;;;;19.00;16.35;;;;;;;14.41;100.00;96531.41;1032001;28;20018;-52
2021/09/28 01:09:42;;;;;;;20.15;15.52;;;;;;;14.40;100.00;96525.31;1028213;28;20018;-51
2021/09/28 01:10:13;;;;;;;20.08;15.70;;;;;;;14.36;100.00;96532.59;1027424;28;20019;-51
2021/09/28 01:10:43;;;;;;;18.08;14.98;;;;;;;14.35;100.00;96530.06;1020465;28;20097;-52
2021/09/28 01:11:14;;;;;;;22.20;16.80;;;;;;;14.36;100.00;96529.13;1024040;28;20016;-52
2021/09/28 01:11:44;;;;;;;20.67;16.30;;;;;;;14.33;100.00;96529.34;1019767;29;20058;-51
2021/09/28 01:12:15;;;;;;;19.25;15.38;;;;;;;14.32;100.00;96522.41;1023892;29;20110;-52
2021/09/28 01:12:46;;;;;;;17.73;14.23;;;;;;;14.33;100.00;96527.56;1019859;29;20390;-51
2021/09/28 01:13:17;;;;;;;20.55;15.10;;;;;;;14.34;100.00;96533.66;1020119;29;20426;-52
2021/09/28 01:13:47;;;;;;;22.05;16.15;;;;;;;14.29;100.00;96527.91;1024419;28;20064;-52
2021/09/28 01:14:18;;;;;;;21.88;15.65;;;;;;;14.27;100.00;96527.19;1032074;28;20077;-53
2021/09/28 01:14:49;;;;;;;18.77;15.25;;;;;;;14.28;100.00;96527.06;1027923;28;20113;-51
2021/09/28 01:15:20;;;;;;;20.35;16.25;;;;;;;14.27;100.00;96522.75;1016044;29;20075;-51
2021/09/28 01:16:06;;;;;;;18.35;15.52;;;;;;;14.25;100.00;96527.31;1019920;29;20544;-52
2021/09/28 01:16:37;;;;;;;24.15;16.17;;;;;;;14.20;100.00;96524.16;1023791;29;20056;-52
2021/09/28 01:17:11;;;;;;;20.48;15.77;;;;;;;14.19;100.00;96531.25;1027996;28;20034;-51
2021/09/28 01:17:44;;;;;;;21.17;15.68;;;;;;;14.21;100.00;96531.13;1027814;28;20082;-53
2021/09/28 01:18:15;;;;;;;22.08;15.63;;;;;;;14.20;100.00;96532.91;1024022;28;20425;-52
2021/09/28 01:18:46;;;;;;;22.60;15.90;;;;;;;14.19;100.00;96528.63;1024219;29;20015;-52
2021/09/28 01:19:17;;;;;;;21.52;16.45;;;;;;;14.20;100.00;96532.06;1027913;28;20081;-52
2021/09/28 01:19:48;;;;;;;22.08;15.75;;;;;;;14.20;100.00;96535.53;1027986;28;20026;-52
2021/09/28 01:20:19;;;;;;;18.08;15.35;;;;;;;14.20;100.00;96530.28;1028329;28;20050;-52
2021/09/28 01:20:49;;;;;;;22.10;15.70;;;;;;;14.21;100.00;96528.50;1020087;29;20099;-51
2021/09/28 01:21:20;;;;;;;19.13;14.98;;;;;;;14.24;100.00;96530.06;1020497;29;20012;-50
2021/09/28 01:21:51;;;;;;;19.13;15.55;;;;;;;14.24;100.00;96530.88;1027888;28;20018;-50
2021/09/28 01:22:22;;;;;;;19.88;15.93;;;;;;;14.22;100.00;96532.81;1028252;28;20101;-51
2021/09/28 01:22:52;;;;;;;19.00;15.43;;;;;;;14.21;100.00;96531.13;1023596;28;20547;-51
2021/09/28 01:23:23;;;;;;;21.20;16.65;;;;;;;14.22;100.00;96531.97;1027856;28;20179;-52
2021/09/28 01:23:53;;;;;;;20.63;16.45;;;;;;;14.19;100.00;96533.06;1027871;28;20492;-51
2021/09/28 01:24:26;;;;;;;18.33;14.88;;;;;;;14.17;100.00;96527.03;1019970;29;20027;-52
2021/09/28 01:24:57;;;;;;;17.95;14.95;;;;;;;14.17;100.00;96527.03;1023740;29;20054;-52
2021/09/28 01:25:31;;;;;;;18.33;15.73;;;;;;;14.20;100.00;96530.28;1019902;29;20397;-52
2021/09/28 01:26:01;;;;;;;19.42;15.00;;;;;;;14.19;100.00;96525.16;1023755;29;20122;-52
2021/09/28 01:26:32;;;;;;;21.65;16.75;;;;;;;14.17;100.00;96533.16;1016454;29;20039;-50
2021/09/28 01:27:03;;;;;;;17.33;14.77;;;;;;;14.15;100.00;96527.16;1023741;28;20437;-51
2021/09/28 01:27:36;;;;;;;19.80;14.75;;;;;;;14.14;100.00;96533.38;1027840;28;20496;-51
2021/09/28 01:28:07;;;;;;;19.83;15.05;;;;;;;14.13;100.00;96529.09;1027706;28;20023;-53
2021/09/28 01:28:39;;;;;;;19.35;15.10;;;;;;;14.10;100.00;96534.56;1019945;29;20426;-52
2021/09/28 01:29:10;;;;;;;19.38;16.00;;;;;;;14.10;100.00;96537.22;1023739;29;20023;-51
2021/09/28 01:29:40;;;;;;;21.35;15.40;;;;;;;14.07;100.00;96536.59;1023915;29;20441;-52
2021/09/28 01:30:12;;;;;;;20.13;15.88;;;;;;;14.07;100.00;96537.44;1032358;28;20544;-52
2021/09/28 01:30:42;;;;;;;19.27;15.10;;;;;;;14.06;100.00;96535.75;1031863;28;20026;-51
2021/09/28 01:31:13;;;;;;;19.88;14.70;;;;;;;14.07;100.00;96540.06;1023753;29;20031;-52
2021/09/28 01:31:46;;;;;;;18.30;14.93;;;;;;;14.11;100.00;96538.03;1019900;29;20114;-51
2021/09/28 01:32:16;;;;;;;19.58;15.88;;;;;;;14.12;100.00;96534.47;1019685;29;20028;-52
2021/09/28 01:32:47;;;;;;;18.75;15.00;;;;;;;14.06;100.00;96533.13;1019699;29;20123;-53
2021/09/28 01:33:18;;;;;;;21.25;15.77;;;;;;;14.03;100.00;96535.97;1023695;29;20038;-52
2021/09/28 01:33:49;;;;;;;18.50;15.10;;;;;;;14.01;100.00;96537.91;1023936;29;20501;-52
2021/09/28 01:34:20;;;;;;;19.80;15.82;;;;;;;13.99;100.00;96532.72;1027609;28;20022;-50
2021/09/28 01:34:51;;;;;;;24.88;16.05;;;;;;;13.96;100.00;96540.03;1019907;29;20055;-52
2021/09/28 01:35:21;;;;;;;21.20;16.02;;;;;;;13.93;100.00;96538.47;1023826;29;20139;-52
2021/09/28 01:35:52;;;;;;;23.10;16.00;;;;;;;13.91;100.00;96543.00;1027739;28;20011;-52
2021/09/28 01:36:23;;;;;;;21.77;15.93;;;;;;;13.88;100.00;96534.50;1027601;28;20023;-52
2021/09/28 01:36:54;;;;;;;21.30;15.95;;;;;;;13.87;100.00;96541.56;1027649;28;20413;-52
2021/09/28 01:37:24;;;;;;;18.80;15.07;;;;;;;13.86;100.00;96541.69;1027936;28;20042;-52
2021/09/28 01:37:56;;;;;;;20.90;15.82;;;;;;;13.83;100.00;96537.47;1019853;29;20024;-52
2021/09/28 01:38:27;;;;;;;17.75;14.45;;;;;;;13.84;100.00;96548.84;1024064;28;20027;-52
2021/09/28 01:38:57;;;;;;;20.48;15.88;;;;;;;13.86;100.00;96544.31;1035723;28;20117;-52
2021/09/28 01:39:28;;;;;;;22.45;16.40;;;;;;;13.82;100.00;96535.78;1031747;28;20181;-52
2021/09/28 01:39:59;;;;;;;19.65;15.35;;;;;;;13.78;100.00;96545.72;1031919;28;20046;-52
2021/09/28 01:40:29;;;;;;;21.15;16.33;;;;;;;13.75;100.00;96540.66;1031975;28;20094;-51
2021/09/28 01:41:01;;;;;;;23.13;16.52;;;;;;;13.74;100.00;96549.53;1027532;28;20102;-52
2021/09/28 01:41:32;;;;;;;23.33;17.05;;;;;;;13.72;100.00;96554.06;1023576;28;20065;-50
2021/09/28 01:42:03;;;;;;;20.55;16.23;;;;;;;13.76;100.00;96544.16;1027832;28;20029;-52
2021/09/28 01:42:33;;;;;;;21.98;17.05;;;;;;;13.78;100.00;96556.25;1031689;28;20471;-52
2021/09/28 01:43:06;;;;;;;19.27;15.63;;;;;;;13.74;100.00;96552.16;1035530;28;20026;-52
2021/09/28 01:43:36;;;;;;;23.77;15.73;;;;;;;13.73;100.00;96547.00;1031849;28;20116;-52
2021/09/28 01:44:09;;;;;;;20.90;16.58;;;;;;;13.73;100.00;96552.28;1031510;28;20455;-52
2021/09/28 01:44:40;;;;;;;19.42;15.80;;;;;;;13.70;100.00;96549.84;1032302;28;20031;-51
2021/09/28 01:45:10;;;;;;;18.15;15.15;;;;;;;13.68;100.00;96549.97;1027599;28;20039;-51
2021/09/28 01:45:42;;;;;;;20.38;17.08;;;;;;;13.65;100.00;96547.56;1019875;29;20028;-52
2021/09/28 01:46:13;;;;;;;20.85;16.42;;;;;;;13.62;100.00;96550.41;1015927;29;20433;-51
2021/09/28 01:46:47;;;;;;;19.60;16.02;;;;;;;13.61;100.00;96544.31;1024174;28;20030;-51
2021/09/28 01:47:18;;;;;;;19.17;15.82;;;;;;;13.64;100.00;96553.78;1028581;28;20046;-52
2021/09/28 01:47:48;;;;;;;22.27;15.98;;;;;;;13.61;100.00;96544.31;1027902;28;20023;-52
2021/09/28 01:48:19;;;;;;;22.02;16.38;;;;;;;13.59;100.00;96546.22;1019926;29;20023;-52
2021/09/28 01:48:52;;;;;;;28.40;16.13;;;;;;;13.57;100.00;96547.25;1027651;28;20018;-52
2021/09/28 01:49:22;;;;;;;21.65;17.42;;;;;;;13.57;100.00;96547.25;1031531;28;20014;-52
2021/09/28 01:49:53;;;;;;;22.45;16.58;;;;;;;13.54;100.00;96547.50;1035762;28;20101;-51
2021/09/28 01:50:24;;;;;;;23.73;16.85;;;;;;;13.56;100.00;96549.06;1023746;29;20425;-52
2021/09/28 01:50:54;;;;;;;22.27;17.30;;;;;;;13.52;100.00;96555.50;1023662;28;20016;-51
2021/09/28 01:51:25;;;;;;;21.02;16.35;;;;;;;13.51;100.00;96545.91;1023805;29;20023;-52
2021/09/28 01:51:56;;;;;;;23.95;18.05;;;;;;;13.52;100.00;96558.16;1020328;28;20027;-52
2021/09/28 01:52:26;;;;;;;25.02;17.25;;;;;;;13.51;100.00;96550.34;1028025;28;20491;-52
2021/09/28 01:52:57;;;;;;;24.85;18.08;;;;;;;13.49;100.00;96552.25;1027420;28;20018;-52
2021/09/28 01:53:28;;;;;;;23.40;18.05;;;;;;;13.51;100.00;96555.63;1035755;28;20036;-52
2021/09/28 01:53:59;;;;;;;23.75;17.25;;;;;;;13.48;100.00;96559.31;1027694;28;20031;-52
2021/09/28 01:54:29;;;;;;;23.00;17.15;;;;;;;13.53;100.00;96556.34;1023772;29;20144;-52
2021/09/28 01:55:01;;;;;;;23.83;17.10;;;;;;;13.50;100.00;96557.41;1019887;29;20378;-52
2021/09/28 01:55:31;;;;;;;21.60;16.17;;;;;;;13.49;100.00;96558.34;1020029;28;20431;-51
2021/09/28 01:56:02;;;;;;;22.20;16.42;;;;;;;13.49;100.00;96563.63;1027928;28;20026;-52
2021/09/28 01:56:33;;;;;;;21.00;16.70;;;;;;;13.50;100.00;96557.41;1027944;28;20022;-52
2021/09/28 01:57:04;;;;;;;20.45;16.05;;;;;;;13.53;100.00;96561.59;1031753;28;20506;-52
2021/09/28 01:57:35;;;;;;;22.27;17.10;;;;;;;13.52;100.00;96559.94;1019753;29;20023;-52
2021/09/28 01:58:06;;;;;;;20.92;15.88;;;;;;;13.53;100.00;96556.34;1019812;29;20474;-51
2021/09/28 01:58:36;;;;;;;22.13;16.85;;;;;;;13.53;100.00;96561.59;1015933;29;20024;-52
2021/09/28 01:59:07;;;;;;;19.98;15.75;;;;;;;13.52;100.00;96555.50;1023649;29;20015;-52
2021/09/28 01:59:38;;;;;;;20.27;15.60;;;;;;;13.55;100.00;96559.69;1027659;28;20034;-52
2021/09/28 02:00:09;;;;;;;21.13;15.60;;;;;;;13.53;100.00;96556.34;1027742;28;20524;-52
2021/09/28 02:00:40;;;;;;;21.80;15.50;;;;;;;13.52;100.00;96560.78;1019808;29;20027;-51
2021/09/28 02:01:11;;;;;;;20.70;16.25;;;;;;;13.52;100.00;96555.50;1020068;29;20465;-51
2021/09/28 02:01:41;;;;;;;18.48;15.18;;;;;;;13.54;100.00;96558.03;1015929;29;20072;-52
2021/09/28 02:02:12;;;;;;;19.58;14.90;;;;;;;13.52;100.00;96552.88;1020289;28;20517;-50
2021/09/28 02:02:43;;;;;;;19.80;15.65;;;;;;;13.52;100.00;96552.06;1027925;28;20049;-51
2021/09/28 02:03:14;;;;;;;21.15;16.13;;;;;;;13.48;100.00;96556.69;1027976;28;20026;-51
2021/09/28 02:03:44;;;;;;;20.45;15.70;;;;;;;13.46;100.00;96552.47;1023948;29;20034;-52
2021/09/28 02:04:15;;;;;;;19.95;15.60;;;;;;;13.45;100.00;96550.81;1019826;29;20063;-51
2021/09/28 02:04:46;;;;;;;21.17;15.80;;;;;;;13.47;100.00;96554.16;1015839;29;20020;-50
2021/09/28 02:05:18;;;;;;;18.83;15.63;;;;;;;13.47;100.00;96551.53;1023665;29;20030;-51
2021/09/28 02:05:48;;;;;;;20.65;16.05;;;;;;;13.48;100.00;96550.59;1027545;28;20041;-50
2021/09/28 02:06:21;;;;;;;19.48;15.30;;;;;;;13.48;100.00;96554.06;1023957;28;20023;-51
2021/09/28 02:06:51;;;;;;;21.45;16.92;;;;;;;13.45;100.00;96550.81;1027588;28;20023;-52
2021/09/28 02:07:22;;;;;;;20.08;16.27;;;;;;;13.45;100.00;96550.81;1024384;28;20363;-51
2021/09/28 02:07:53;;;;;;;22.83;15.82;;;;;;;13.47;100.00;96551.53;1031563;28;20034;-52
2021/09/28 02:08:23;;;;;;;19.98;15.93;;;;;;;13.44;100.00;96552.59;1027871;28;20029;-52
2021/09/28 02:08:54;;;;;;;19.60;15.48;;;;;;;13.45;100.00;96551.63;1027694;28;20023;-52
2021/09/28 02:09:25;;;;;;;18.40;15.20;;;;;;;13.48;100.00;96553.22;1031646;28;20084;-52
2021/09/28 02:09:56;;;;;;;18.83;15.20;;;;;;;13.45;100.00;96558.69;1031534;28;20018;-52
2021/09/28 02:10:27;;;;;;;23.08;15.85;;;;;;;13.46;100.00;96553.34;1032115;28;20109;-53
2021/09/28 02:10:57;;;;;;;19.88;16.20;;;;;;;13.47;100.00;96547.09;1035711;28;20097;-51
2021/09/28 02:11:28;;;;;;;21.13;15.75;;;;;;;13.53;100.00;96553.72;1028052;28;20088;-52
2021/09/28 02:11:58;;;;;;;19.63;15.70;;;;;;;13.57;100.00;96553.41;1027641;28;20054;-52
2021/09/28 02:12:29;;;;;;;18.98;15.45;;;;;;;13.61;100.00;96551.38;1027641;28;20412;-52
2021/09/28 02:13:00;;;;;;;17.95;14.93;;;;;;;13.60;100.00;96557.59;1023532;29;20033;-51
2021/09/28 02:13:31;;;;;;;16.90;14.88;;;;;;;13.64;100.00;96551.13;1023822;28;20031;-52
2021/09/28 02:14:02;;;;;;;18.70;15.48;;;;;;;13.67;100.00;96558.00;1027473;28;20102;-52
2021/09/28 02:14:32;;;;;;;20.58;14.85;;;;;;;13.67;100.00;96550.09;1027620;28;20026;-51
2021/09/28 02:15:03;;;;;;;20.33;14.57;;;;;;;13.68;100.00;96549.13;1019648;29;20106;-51
2021/09/28 02:15:34;;;;;;;17.13;14.43;;;;;;;13.71;100.00;96552.38;1019512;29;20042;-52
2021/09/28 02:16:05;;;;;;;17.58;14.10;;;;;;;13.72;100.00;96546.16;1027441;28;20514;-52
2021/09/28 02:16:36;;;;;;;16.83;13.88;;;;;;;13.76;100.00;96549.41;1019581;29;20123;-51
2021/09/28 02:17:07;;;;;;;18.20;15.10;;;;;;;13.77;100.00;96554.56;1019637;29;20028;-52
2021/09/28 02:17:39;;;;;;;16.35;12.98;;;;;;;13.85;100.00;96553.16;1023653;28;20027;-52
2021/09/28 02:18:10;;;;;;;16.90;13.25;;;;;;;13.84;100.00;96554.13;1027857;28;20113;-51
2021/09/28 02:18:40;;;;;;;17.52;13.90;;;;;;;13.74;100.00;96531.09;1027294;28;20027;-51
2021/09/28 02:19:12;;;;;;;16.23;13.88;;;;;;;13.89;100.00;96544.06;1020005;29;20027;-52
2021/09/28 02:19:43;;;;;;;20.70;13.77;;;;;;;13.87;100.00;96549.47;1020508;28;20024;-52
2021/09/28 02:20:13;;;;;;;17.88;14.50;;;;;;;13.85;100.00;96550.53;1027978;28;20050;-52
2021/09/28 02:20:44;;;;;;;17.00;13.95;;;;;;;13.88;100.00;96556.41;1019905;29;20031;-52
2021/09/28 02:21:15;;;;;;;17.33;13.45;;;;;;;13.98;100.00;96553.91;1024042;28;20476;-51
2021/09/28 02:21:45;;;;;;;18.50;13.07;;;;;;;14.00;100.00;96552.88;1023623;29;20027;-52